createdAt,value
2023-04-10T00:00:39.270Z,1.69
2023-04-10T00:01:40.886Z,1.74
2023-04-10T00:02:42.766Z,1.78
2023-04-10T00:03:44.437Z,1.75
2023-04-10T00:04:46.092Z,1.73
2023-04-10T00:05:47.541Z,1.67
2023-04-10T00:06:49.122Z,1.66
2023-04-10T00:07:50.825Z,1.63
2023-04-10T00:08:52.310Z,1.61
2023-04-10T00:09:53.779Z,1.61
2023-04-10T00:10:56.022Z,1.64
2023-04-10T00:11:57.636Z,1.59
2023-04-10T00:13:00.770Z,1.61
2023-04-10T00:14:02.178Z,1.63
2023-04-10T00:15:04.520Z,1.56
2023-04-10T00:16:06.553Z,1.54
2023-04-10T00:17:08.091Z,1.63
2023-04-10T00:18:09.600Z,1.71
2023-04-10T00:19:11.262Z,1.67
2023-04-10T00:20:12.844Z,1.66
2023-04-10T00:21:14.413Z,1.59
2023-04-10T00:22:15.915Z,1.64
2023-04-10T00:23:17.333Z,1.62
2023-04-10T00:24:18.738Z,1.63
2023-04-10T00:25:20.591Z,1.69
2023-04-10T00:26:23.768Z,1.59
2023-04-10T00:27:25.449Z,1.60
2023-04-10T00:28:27.261Z,1.60
2023-04-10T00:29:28.682Z,1.59
2023-04-10T00:30:30.115Z,1.64
2023-04-10T00:31:34.392Z,1.63
2023-04-10T00:32:36.035Z,1.61
2023-04-10T00:33:37.454Z,1.57
2023-04-10T00:34:38.917Z,1.52
2023-04-10T00:35:40.578Z,1.46
2023-04-10T00:36:42.302Z,1.59
2023-04-10T00:37:43.682Z,1.59
2023-04-10T00:38:45.212Z,1.58
2023-04-10T00:39:46.589Z,1.54
2023-04-10T00:40:48.354Z,1.51
2023-04-10T00:41:49.757Z,1.51
2023-04-10T00:42:51.291Z,1.49
2023-04-10T00:43:56.973Z,1.44
2023-04-10T00:44:59.159Z,1.42
2023-04-10T00:46:01.682Z,1.36
2023-04-10T00:47:05.444Z,1.41
2023-04-10T00:48:07.716Z,1.37
2023-04-10T00:49:09.549Z,1.36
2023-04-10T00:50:11.224Z,1.35
2023-04-10T00:51:12.896Z,1.35
2023-04-10T00:52:14.463Z,1.44
2023-04-10T00:53:16.611Z,1.44
2023-04-10T00:54:18.540Z,1.43
2023-04-10T00:55:20.261Z,1.37
2023-04-10T00:56:23.952Z,1.41
2023-04-10T00:57:27.078Z,1.36
2023-04-10T00:58:28.607Z,1.43
2023-04-10T00:59:30.485Z,1.37
2023-04-10T01:00:31.906Z,1.38
2023-04-10T01:01:33.434Z,1.33
2023-04-10T01:02:35.085Z,1.33
2023-04-10T01:03:38.406Z,1.29
2023-04-10T01:04:40.412Z,1.33
2023-04-10T01:06:02.283Z,1.34
2023-04-10T01:07:11.102Z,1.27
2023-04-10T01:08:24.800Z,1.26
2023-04-10T01:09:47.206Z,1.22
2023-04-10T01:10:56.631Z,1.27
2023-04-10T01:12:12.745Z,1.27
2023-04-10T01:13:25.366Z,1.17
2023-04-10T01:14:54.760Z,1.29
2023-04-10T01:16:09.224Z,1.24
2023-04-10T01:17:17.158Z,1.19
2023-04-10T01:18:53.077Z,1.21
2023-04-10T01:20:14.367Z,1.16
2023-04-10T01:21:17.351Z,1.22
2023-04-10T01:22:21.800Z,1.18
2023-04-10T01:23:32.445Z,1.23
2023-04-10T01:24:53.961Z,1.20
2023-04-10T01:26:04.075Z,1.18
2023-04-10T01:27:45.277Z,1.18
2023-04-10T01:29:04.109Z,1.07
2023-04-10T01:30:08.359Z,1.10
2023-04-10T01:31:15.482Z,1.16
2023-04-10T01:32:20.467Z,1.11
2023-04-10T01:33:26.550Z,1.19
2023-04-10T01:34:34.417Z,1.16
2023-04-10T01:35:37.224Z,1.29
2023-04-10T01:36:54.579Z,1.32
2023-04-10T01:37:57.289Z,1.25
2023-04-10T01:38:58.939Z,1.31
2023-04-10T01:40:03.276Z,1.27
2023-04-10T01:41:06.262Z,1.26
2023-04-10T01:42:10.696Z,1.16
2023-04-10T01:43:13.105Z,1.17
2023-04-10T01:44:16.635Z,1.12
2023-04-10T01:45:21.773Z,1.06
2023-04-10T01:46:25.095Z,0.86
2023-04-10T01:47:27.993Z,0.97
2023-04-10T01:48:30.081Z,0.93
2023-04-10T01:49:32.935Z,0.95
2023-04-10T01:50:35.475Z,0.94
2023-04-10T01:51:37.461Z,0.94
2023-04-10T01:52:41.064Z,1.04
2023-04-10T01:53:44.952Z,0.99
2023-04-10T01:54:48.485Z,0.91
2023-04-10T01:55:50.903Z,0.88
2023-04-10T01:56:52.794Z,0.89
2023-04-10T01:57:54.605Z,0.84
2023-04-10T01:58:56.562Z,0.72
2023-04-10T01:59:58.495Z,0.79
2023-04-10T02:00:59.895Z,0.73
2023-04-10T02:02:01.609Z,0.72
2023-04-10T02:03:03.501Z,0.78
2023-04-10T02:04:05.465Z,0.71
2023-04-10T02:05:07.239Z,0.67
2023-04-10T02:06:18.455Z,0.70
2023-04-10T02:07:49.080Z,0.75
2023-04-10T02:08:57.100Z,0.73
2023-04-10T02:10:24.771Z,0.80
2023-04-10T02:11:38.251Z,0.82
2023-04-10T02:12:45.915Z,0.83
2023-04-10T02:13:50.468Z,0.78
2023-04-10T02:14:56.116Z,0.82
2023-04-10T02:16:01.551Z,0.70
2023-04-10T02:17:06.555Z,0.74
2023-04-10T02:18:10.071Z,0.68
2023-04-10T02:19:13.110Z,0.69
2023-04-10T02:20:16.121Z,0.59
2023-04-10T02:21:17.828Z,0.57
2023-04-10T02:22:19.240Z,0.58
2023-04-10T02:23:21.077Z,0.49
2023-04-10T02:24:22.580Z,0.54
2023-04-10T02:25:23.976Z,0.59
2023-04-10T02:26:25.524Z,0.57
2023-04-10T02:27:33.882Z,0.58
2023-04-10T02:28:38.429Z,0.56
2023-04-10T02:29:39.849Z,0.61
2023-04-10T02:30:41.309Z,0.68
2023-04-10T02:31:43.736Z,0.52
2023-04-10T02:32:45.179Z,0.57
2023-04-10T02:33:47.370Z,0.54
2023-04-10T02:34:48.666Z,0.52
2023-04-10T02:35:50.100Z,0.54
2023-04-10T02:36:52.137Z,0.47
2023-04-10T02:37:53.506Z,0.42
2023-04-10T02:38:54.951Z,0.42
2023-04-10T02:39:56.454Z,0.46
2023-04-10T02:40:57.878Z,0.48
2023-04-10T02:41:59.376Z,0.43
2023-04-10T02:43:01.376Z,0.39
2023-04-10T02:44:02.824Z,0.30
2023-04-10T02:45:04.647Z,0.27
2023-04-10T02:46:06.533Z,0.28
2023-04-10T02:47:08.241Z,0.28
2023-04-10T02:48:10.963Z,0.33
2023-04-10T02:49:12.375Z,0.29
2023-04-10T02:50:13.986Z,0.32
2023-04-10T02:51:15.609Z,0.29
2023-04-10T02:52:17.345Z,0.25
2023-04-10T02:53:19.824Z,0.22
2023-04-10T02:54:21.580Z,0.15
2023-04-10T02:55:22.979Z,0.16
2023-04-10T02:56:25.734Z,0.19
2023-04-10T02:57:27.242Z,0.20
2023-04-10T02:58:30.448Z,0.22
2023-04-10T02:59:33.112Z,0.24
2023-04-10T03:00:34.516Z,0.25
2023-04-10T03:01:36.443Z,0.22
2023-04-10T03:02:38.047Z,0.25
2023-04-10T03:03:39.716Z,0.23
2023-04-10T03:04:41.243Z,0.25
2023-04-10T03:05:42.740Z,0.20
2023-04-10T03:06:44.281Z,0.25
2023-04-10T03:07:45.766Z,0.21
2023-04-10T03:08:47.288Z,0.16
2023-04-10T03:09:48.716Z,0.18
2023-04-10T03:10:50.398Z,0.22
2023-04-10T03:11:52.045Z,0.19
2023-04-10T03:12:53.437Z,0.17
2023-04-10T03:13:55.155Z,0.14
2023-04-10T03:14:56.784Z,0.18
2023-04-10T03:15:58.235Z,0.17
2023-04-10T03:16:59.676Z,0.26
2023-04-10T03:18:01.178Z,0.27
2023-04-10T03:19:02.704Z,0.31
2023-04-10T03:20:04.382Z,0.48
2023-04-10T03:21:06.397Z,0.44
2023-04-10T03:22:07.960Z,0.36
2023-04-10T03:23:09.398Z,0.25
2023-04-10T03:24:10.832Z,0.20
2023-04-10T03:25:12.269Z,0.15
2023-04-10T03:26:13.661Z,0.12
2023-04-10T03:27:15.892Z,0.11
2023-04-10T03:28:17.394Z,0.09
2023-04-10T03:29:19.105Z,0.11
2023-04-10T03:30:20.883Z,0.10
2023-04-10T03:31:22.341Z,0.18
2023-04-10T03:32:23.879Z,0.16
2023-04-10T03:33:25.366Z,0.14
2023-04-10T03:34:26.770Z,0.17
2023-04-10T03:35:28.258Z,0.14
2023-04-10T03:36:29.727Z,0.12
2023-04-10T03:37:31.692Z,0.09
2023-04-10T03:38:33.356Z,0.15
2023-04-10T03:39:34.833Z,0.13
2023-04-10T03:40:36.292Z,0.13
2023-04-10T03:41:37.725Z,0.13
2023-04-10T03:42:39.142Z,0.14
2023-04-10T03:43:40.697Z,0.09
2023-04-10T03:44:42.099Z,0.15
2023-04-10T03:45:43.492Z,0.19
2023-04-10T03:46:44.944Z,0.19
2023-04-10T03:47:46.448Z,0.21
2023-04-10T03:48:49.497Z,0.35
2023-04-10T03:49:50.932Z,0.42
2023-04-10T03:50:52.338Z,0.55
2023-04-10T03:51:53.747Z,0.47
2023-04-10T03:52:55.477Z,0.46
2023-04-10T03:53:57.076Z,0.47
2023-04-10T03:54:58.579Z,0.48
2023-04-10T03:56:00.252Z,0.44
2023-04-10T03:57:01.931Z,0.41
2023-04-10T03:58:03.334Z,0.56
2023-04-10T03:59:04.824Z,0.69
2023-04-10T04:00:07.223Z,0.62
2023-04-10T04:01:08.699Z,0.59
2023-04-10T04:02:10.848Z,0.51
2023-04-10T04:03:12.625Z,0.51
2023-04-10T04:04:14.532Z,0.48
2023-04-10T04:05:16.638Z,0.58
2023-04-10T04:06:18.218Z,0.63
2023-04-10T04:07:19.640Z,0.58
2023-04-10T04:08:21.032Z,0.68
2023-04-10T04:09:22.470Z,0.70
2023-04-10T04:10:24.325Z,0.75
2023-04-10T04:11:25.774Z,0.83
2023-04-10T04:12:27.199Z,0.88
2023-04-10T04:13:28.576Z,0.87
2023-04-10T04:14:30.179Z,0.81
2023-04-10T04:15:31.683Z,0.82
2023-04-10T04:16:33.385Z,0.75
2023-04-10T04:17:35.240Z,0.69
2023-04-10T04:18:36.737Z,0.65
2023-04-10T04:19:38.157Z,0.66
2023-04-10T04:20:39.635Z,0.65
2023-04-10T04:21:41.060Z,0.62
2023-04-10T04:22:42.526Z,0.65
2023-04-10T04:23:44.249Z,0.76
2023-04-10T04:24:45.686Z,0.73
2023-04-10T04:25:47.166Z,0.68
2023-04-10T04:26:49.852Z,0.65
2023-04-10T04:27:51.609Z,0.59
2023-04-10T04:28:53.086Z,0.54
2023-04-10T04:29:54.492Z,0.46
2023-04-10T04:30:55.951Z,0.41
2023-04-10T04:31:57.451Z,0.38
2023-04-10T04:32:59.071Z,0.32
2023-04-10T04:34:00.906Z,0.31
2023-04-10T04:35:02.510Z,0.34
2023-04-10T04:36:04.265Z,0.30
2023-04-10T04:37:05.919Z,0.29
2023-04-10T04:38:07.378Z,0.30
2023-04-10T04:39:08.812Z,0.31
2023-04-10T04:40:10.744Z,0.32
2023-04-10T04:41:12.289Z,0.29
2023-04-10T04:42:13.718Z,0.28
2023-04-10T04:43:15.238Z,0.30
2023-04-10T04:44:18.707Z,0.33
2023-04-10T04:45:21.766Z,0.34
2023-04-10T04:46:23.513Z,0.35
2023-04-10T04:47:25.216Z,0.37
2023-04-10T04:48:26.626Z,0.39
2023-04-10T04:49:28.100Z,0.37
2023-04-10T04:50:29.536Z,0.40
2023-04-10T04:51:31.048Z,0.41
2023-04-10T04:52:32.447Z,0.38
2023-04-10T04:53:33.876Z,0.41
2023-04-10T04:54:35.451Z,0.41
2023-04-10T04:55:36.992Z,0.44
2023-04-10T04:56:38.413Z,0.45
2023-04-10T04:57:39.833Z,0.47
2023-04-10T04:58:41.348Z,0.48
2023-04-10T04:59:42.775Z,0.51
2023-04-10T05:00:44.256Z,0.54
2023-04-10T05:01:45.837Z,0.65
2023-04-10T05:02:47.508Z,0.72
2023-04-10T05:03:49.195Z,0.74
2023-04-10T05:04:50.672Z,0.78
2023-04-10T05:05:52.071Z,0.77
2023-04-10T05:06:53.547Z,0.94
2023-04-10T05:07:55.015Z,0.98
2023-04-10T05:08:56.627Z,1.04
2023-04-10T05:09:58.118Z,1.18
2023-04-10T05:10:59.539Z,1.22
2023-04-10T05:12:00.945Z,1.24
2023-04-10T05:13:02.392Z,1.28
2023-04-10T05:14:03.882Z,1.33
2023-04-10T05:15:06.274Z,1.34
2023-04-10T05:16:08.160Z,1.40
2023-04-10T05:17:09.609Z,1.48
2023-04-10T05:18:11.356Z,1.58
2023-04-10T05:19:12.999Z,1.65
2023-04-10T05:20:14.600Z,1.73
2023-04-10T05:21:16.039Z,1.81
2023-04-10T05:22:18.637Z,1.90
2023-04-10T05:23:20.359Z,2.10
2023-04-10T05:24:21.997Z,2.17
2023-04-10T05:25:23.597Z,2.28
2023-04-10T05:26:24.977Z,2.45
2023-04-10T05:27:26.386Z,2.60
2023-04-10T05:28:27.875Z,2.74
2023-04-10T05:29:29.376Z,2.84
2023-04-10T05:30:30.803Z,2.90
2023-04-10T05:31:32.409Z,3.09
2023-04-10T05:32:33.935Z,3.15
2023-04-10T05:33:35.601Z,3.23
2023-04-10T05:34:37.063Z,3.30
2023-04-10T05:35:38.508Z,3.45
2023-04-10T05:36:39.937Z,3.48
2023-04-10T05:37:41.357Z,3.53
2023-04-10T05:38:42.763Z,3.53
2023-04-10T05:39:44.275Z,3.58
2023-04-10T05:40:45.807Z,3.65
2023-04-10T05:41:47.199Z,3.68
2023-04-10T05:42:48.608Z,3.72
2023-04-10T05:43:50.473Z,3.69
2023-04-10T05:44:52.829Z,3.78
2023-04-10T05:45:54.324Z,3.86
2023-04-10T05:46:55.767Z,3.88
2023-04-10T05:47:57.214Z,3.96
2023-04-10T05:48:58.739Z,4.05
2023-04-10T05:50:00.235Z,4.09
2023-04-10T05:51:01.641Z,4.14
2023-04-10T05:52:03.129Z,4.20
2023-04-10T05:53:04.600Z,4.31
2023-04-10T05:54:06.101Z,4.36
2023-04-10T05:55:08.292Z,4.50
2023-04-10T05:56:09.755Z,4.63
2023-04-10T05:57:11.222Z,4.77
2023-04-10T05:58:12.634Z,4.95
2023-04-10T05:59:14.063Z,5.08
2023-04-10T06:00:17.880Z,5.29
2023-04-10T06:01:19.426Z,5.48
2023-04-10T06:02:21.859Z,5.53
2023-04-10T06:03:24.033Z,5.62
2023-04-10T06:04:25.855Z,5.74
2023-04-10T06:05:27.756Z,5.72
2023-04-10T06:06:29.720Z,5.87
2023-04-10T06:07:33.151Z,5.95
2023-04-10T06:08:34.733Z,6.04
2023-04-10T06:09:36.449Z,6.23
2023-04-10T06:10:38.173Z,6.35
2023-04-10T06:11:39.640Z,6.34
2023-04-10T06:12:41.586Z,6.34
2023-04-10T06:13:42.994Z,6.35
2023-04-10T06:14:44.517Z,6.43
2023-04-10T06:15:46.006Z,6.58
2023-04-10T06:16:47.668Z,6.71
2023-04-10T06:17:49.141Z,6.76
2023-04-10T06:18:52.613Z,6.88
2023-04-10T06:19:54.318Z,7.10
2023-04-10T06:20:58.026Z,7.13
2023-04-10T06:21:59.427Z,7.27
2023-04-10T06:23:01.039Z,7.55
2023-04-10T06:24:02.513Z,7.67
2023-04-10T06:25:05.333Z,7.89
2023-04-10T06:26:06.932Z,8.01
2023-04-10T06:27:08.952Z,8.13
2023-04-10T06:28:10.258Z,8.33
2023-04-10T06:29:12.290Z,8.38
2023-04-10T06:30:13.574Z,8.27
2023-04-10T06:31:15.464Z,8.29
2023-04-10T06:32:16.877Z,8.24
2023-04-10T06:33:18.413Z,8.27
2023-04-10T06:34:19.898Z,8.45
2023-04-10T06:35:21.802Z,8.47
2023-04-10T06:36:23.330Z,8.47
2023-04-10T06:37:29.906Z,8.75
2023-04-10T06:38:31.516Z,8.72
2023-04-10T06:39:32.958Z,8.87
2023-04-10T06:40:34.481Z,8.96
2023-04-10T06:41:35.925Z,8.93
2023-04-10T06:42:37.892Z,8.98
2023-04-10T06:43:39.270Z,9.14
2023-04-10T06:44:40.686Z,9.16
2023-04-10T06:45:42.075Z,9.05
2023-04-10T06:46:43.553Z,9.17
2023-04-10T06:47:45.033Z,9.04
2023-04-10T06:48:46.441Z,9.08
2023-04-10T06:49:47.859Z,9.06
2023-04-10T06:50:49.282Z,9.15
2023-04-10T06:51:51.010Z,9.10
2023-04-10T06:52:55.784Z,9.11
2023-04-10T06:53:57.224Z,9.12
2023-04-10T06:54:58.609Z,9.23
2023-04-10T06:56:02.938Z,9.12
2023-04-10T06:57:05.373Z,9.11
2023-04-10T06:58:06.774Z,9.22
2023-04-10T06:59:08.214Z,9.32
2023-04-10T07:00:10.400Z,9.36
2023-04-10T07:01:11.836Z,9.39
2023-04-10T07:02:13.455Z,9.30
2023-04-10T07:03:15.046Z,9.13
2023-04-10T07:04:16.550Z,9.22
2023-04-10T07:05:18.066Z,9.32
2023-04-10T07:06:19.556Z,9.37
2023-04-10T07:07:21.329Z,9.25
2023-04-10T07:08:22.792Z,9.31
2023-04-10T07:09:27.893Z,9.38
2023-04-10T07:10:29.377Z,9.28
2023-04-10T07:11:30.851Z,9.16
2023-04-10T07:12:32.621Z,9.16
2023-04-10T07:13:35.593Z,9.30
2023-04-10T07:14:37.096Z,9.36
2023-04-10T07:15:38.644Z,9.42
2023-04-10T07:16:40.181Z,9.70
2023-04-10T07:17:41.694Z,9.83
2023-04-10T07:18:44.295Z,9.83
2023-04-10T07:19:47.115Z,9.71
2023-04-10T07:20:49.977Z,9.93
2023-04-10T07:21:51.432Z,10.21
2023-04-10T07:22:52.913Z,10.18
2023-04-10T07:23:54.802Z,10.02
2023-04-10T07:24:56.369Z,10.13
2023-04-10T07:25:58.245Z,9.98
2023-04-10T07:27:01.436Z,9.99
2023-04-10T07:28:02.896Z,10.05
2023-04-10T07:29:04.321Z,10.11
2023-04-10T07:30:06.677Z,9.91
2023-04-10T07:31:08.482Z,9.86
2023-04-10T07:32:10.043Z,9.90
2023-04-10T07:33:11.846Z,10.01
2023-04-10T07:34:13.497Z,10.02
2023-04-10T07:35:15.039Z,10.03
2023-04-10T07:36:16.545Z,10.00
2023-04-10T07:37:18.240Z,9.98
2023-04-10T07:38:19.752Z,10.02
2023-04-10T07:39:21.220Z,10.04
2023-04-10T07:40:22.635Z,10.13
2023-04-10T07:41:24.108Z,10.15
2023-04-10T07:42:25.745Z,10.20
2023-04-10T07:43:27.188Z,10.24
2023-04-10T07:44:28.660Z,10.28
2023-04-10T07:45:30.273Z,10.45
2023-04-10T07:46:31.774Z,10.65
2023-04-10T07:47:33.230Z,10.73
2023-04-10T07:48:34.733Z,10.56
2023-04-10T07:49:36.727Z,10.57
2023-04-10T07:50:38.034Z,10.81
2023-04-10T07:51:39.492Z,10.62
2023-04-10T07:52:40.916Z,10.71
2023-04-10T07:53:42.396Z,10.68
2023-04-10T07:54:43.872Z,10.74
2023-04-10T07:55:48.744Z,10.82
2023-04-10T07:56:52.446Z,10.89
2023-04-10T07:57:53.878Z,11.25
2023-04-10T07:58:55.510Z,11.41
2023-04-10T07:59:57.186Z,11.47
2023-04-10T08:00:58.965Z,11.69
2023-04-10T08:02:00.603Z,11.48
2023-04-10T08:03:02.503Z,11.55
2023-04-10T08:04:05.799Z,11.60
2023-04-10T08:05:08.054Z,11.67
2023-04-10T08:06:09.900Z,11.75
2023-04-10T08:07:11.324Z,11.91
2023-04-10T08:08:12.819Z,11.91
2023-04-10T08:09:14.233Z,11.89
2023-04-10T08:10:15.864Z,11.71
2023-04-10T08:11:31.867Z,11.69
2023-04-10T08:12:34.397Z,11.72
2023-04-10T08:13:36.011Z,11.70
2023-04-10T08:14:37.414Z,11.80
2023-04-10T08:15:38.804Z,11.95
2023-04-10T08:16:40.361Z,11.97
2023-04-10T08:17:41.932Z,11.98
2023-04-10T08:18:43.371Z,11.90
2023-04-10T08:19:44.789Z,11.95
2023-04-10T08:20:46.211Z,11.89
2023-04-10T08:21:47.630Z,11.85
2023-04-10T08:22:49.039Z,11.91
2023-04-10T08:23:55.192Z,11.90
2023-04-10T08:24:56.620Z,12.14
2023-04-10T08:25:58.014Z,12.09
2023-04-10T08:26:59.425Z,11.97
2023-04-10T08:28:01.000Z,12.04
2023-04-10T08:29:02.487Z,12.14
2023-04-10T08:30:04.726Z,12.10
2023-04-10T08:31:06.499Z,12.05
2023-04-10T08:32:08.145Z,12.08
2023-04-10T08:33:09.583Z,12.18
2023-04-10T08:34:11.326Z,12.23
2023-04-10T08:35:12.765Z,12.38
2023-04-10T08:36:20.199Z,12.45
2023-04-10T08:37:22.577Z,12.55
2023-04-10T08:38:25.052Z,12.57
2023-04-10T08:39:26.455Z,12.65
2023-04-10T08:40:27.999Z,12.69
2023-04-10T08:41:29.497Z,12.71
2023-04-10T08:42:32.192Z,12.59
2023-04-10T08:43:35.472Z,12.67
2023-04-10T08:44:37.923Z,12.77
2023-04-10T08:45:41.207Z,12.97
2023-04-10T08:46:45.520Z,13.03
2023-04-10T08:47:50.629Z,13.06
2023-04-10T08:48:59.521Z,13.14
2023-04-10T08:50:06.043Z,12.88
2023-04-10T08:51:18.674Z,12.81
2023-04-10T08:52:24.915Z,12.94
2023-04-10T08:53:30.986Z,12.75
2023-04-10T08:54:38.733Z,12.86
2023-04-10T08:55:41.154Z,12.90
2023-04-10T08:56:46.902Z,12.89
2023-04-10T08:57:58.041Z,12.70
2023-04-10T08:59:05.304Z,12.98
2023-04-10T09:01:29.035Z,13.69
2023-04-10T09:02:30.789Z,13.65
2023-04-10T09:03:32.792Z,13.56
2023-04-10T09:04:34.666Z,13.52
2023-04-10T09:05:37.005Z,13.47
2023-04-10T09:06:38.566Z,13.51
2023-04-10T09:07:40.101Z,13.40
2023-04-10T09:08:41.532Z,13.45
2023-04-10T09:09:43.350Z,13.51
2023-04-10T09:10:44.758Z,13.56
2023-04-10T09:11:52.386Z,13.64
2023-04-10T09:12:53.946Z,14.04
2023-04-10T09:13:55.512Z,14.00
2023-04-10T09:14:57.193Z,13.93
2023-04-10T09:15:59.508Z,13.96
2023-04-10T09:17:30.532Z,14.27
2023-04-10T09:18:51.550Z,14.04
2023-04-10T09:19:56.375Z,14.02
2023-04-10T09:21:07.074Z,14.12
2023-04-10T09:22:09.358Z,14.00
2023-04-10T09:23:23.015Z,14.11
2023-04-10T09:24:25.102Z,14.02
2023-04-10T09:25:36.685Z,14.18
2023-04-10T09:26:38.117Z,13.78
2023-04-10T09:27:40.180Z,13.81
2023-04-10T09:29:10.251Z,13.97
2023-04-10T09:30:32.127Z,14.39
2023-04-10T09:31:38.743Z,14.28
2023-04-10T09:32:43.135Z,14.43
2023-04-10T09:33:44.616Z,14.46
2023-04-10T09:34:54.688Z,14.70
2023-04-10T09:36:00.448Z,14.99
2023-04-10T09:37:02.079Z,14.87
2023-04-10T09:38:16.774Z,14.94
2023-04-10T09:39:18.455Z,14.95
2023-04-10T09:40:22.857Z,15.11
2023-04-10T09:41:24.292Z,14.70
2023-04-10T09:42:37.275Z,14.93
2023-04-10T09:43:39.046Z,15.16
2023-04-10T09:44:41.470Z,15.29
2023-04-10T09:45:50.989Z,15.33
2023-04-10T09:46:52.575Z,15.32
2023-04-10T09:48:08.336Z,14.82
2023-04-10T09:49:09.977Z,14.57
2023-04-10T09:50:11.443Z,14.67
2023-04-10T09:51:31.610Z,14.77
2023-04-10T09:52:38.164Z,14.94
2023-04-10T09:53:50.426Z,14.74
2023-04-10T09:54:53.912Z,15.19
2023-04-10T09:55:56.201Z,15.19
2023-04-10T09:56:58.144Z,15.45
2023-04-10T09:58:00.603Z,15.38
2023-04-10T09:59:04.701Z,15.40
2023-04-10T10:00:09.763Z,15.66
2023-04-10T10:01:12.830Z,15.39
2023-04-10T10:02:16.435Z,15.52
2023-04-10T10:03:21.148Z,15.76
2023-04-10T10:04:23.495Z,15.95
2023-04-10T10:05:30.399Z,16.35
2023-04-10T10:06:32.901Z,16.06
2023-04-10T10:07:34.809Z,15.84
2023-04-10T10:08:36.432Z,15.72
2023-04-10T10:09:38.537Z,15.47
2023-04-10T10:10:51.044Z,15.58
2023-04-10T10:11:53.105Z,15.81
2023-04-10T10:13:01.797Z,15.98
2023-04-10T10:14:08.482Z,16.07
2023-04-10T10:15:22.368Z,15.91
2023-04-10T10:16:39.036Z,16.29
2023-04-10T10:17:55.358Z,16.03
2023-04-10T10:19:22.066Z,15.79
2023-04-10T10:20:26.149Z,15.77
2023-04-10T10:21:29.654Z,15.79
2023-04-10T10:22:32.413Z,15.72
2023-04-10T10:23:34.229Z,15.62
2023-04-10T10:24:38.355Z,15.81
2023-04-10T10:25:40.372Z,15.85
2023-04-10T10:26:43.144Z,16.07
2023-04-10T10:27:46.276Z,16.22
2023-04-10T10:28:50.970Z,16.08
2023-04-10T10:29:54.719Z,16.33
2023-04-10T10:30:56.317Z,16.35
2023-04-10T10:32:02.841Z,16.23
2023-04-10T10:33:07.217Z,16.66
2023-04-10T10:34:09.657Z,16.67
2023-04-10T10:35:11.295Z,16.85
2023-04-10T10:36:14.833Z,16.72
2023-04-10T10:37:17.204Z,16.59
2023-04-10T10:38:19.106Z,16.99
2023-04-10T10:39:23.227Z,17.29
2023-04-10T10:40:44.152Z,16.99
2023-04-10T10:41:58.322Z,17.09
2023-04-10T10:43:12.179Z,16.70
2023-04-10T10:44:22.054Z,17.13
2023-04-10T10:45:50.938Z,16.76
2023-04-10T10:46:59.363Z,16.98
2023-04-10T10:48:00.838Z,16.97
2023-04-10T10:49:02.382Z,17.17
2023-04-10T10:50:04.101Z,17.32
2023-04-10T10:51:05.908Z,17.29
2023-04-10T10:52:07.244Z,17.52
2023-04-10T10:53:08.692Z,17.71
2023-04-10T10:54:31.680Z,17.89
2023-04-10T10:55:37.112Z,17.99
2023-04-10T10:56:38.568Z,18.02
2023-04-10T10:57:47.713Z,17.44
2023-04-10T10:58:56.141Z,17.52
2023-04-10T10:59:58.011Z,17.56
2023-04-10T11:00:59.413Z,17.66
2023-04-10T11:02:14.009Z,17.61
2023-04-10T11:03:15.607Z,17.36
2023-04-10T11:04:42.749Z,17.24
2023-04-10T11:06:06.859Z,17.28
2023-04-10T11:07:08.378Z,17.13
2023-04-10T11:08:09.786Z,16.91
2023-04-10T11:09:47.591Z,16.84
2023-04-10T11:11:06.314Z,17.19
2023-04-10T11:12:07.796Z,17.27
2023-04-10T11:13:17.215Z,17.81
2023-04-10T11:14:19.289Z,18.00
2023-04-10T11:15:24.249Z,18.44
2023-04-10T11:16:36.294Z,17.67
2023-04-10T11:17:54.377Z,17.33
2023-04-10T11:19:13.088Z,17.41
2023-04-10T11:20:17.075Z,16.95
2023-04-10T11:21:20.875Z,17.22
2023-04-10T11:22:22.324Z,17.67
2023-04-10T11:23:24.066Z,17.60
2023-04-10T11:24:26.667Z,18.10
2023-04-10T11:26:03.754Z,18.19
2023-04-10T11:27:05.181Z,17.95
2023-04-10T11:28:06.763Z,18.11
2023-04-10T11:29:20.189Z,18.17
2023-04-10T11:30:35.719Z,17.99
2023-04-10T11:31:37.283Z,18.01
2023-04-10T11:32:42.192Z,18.29
2023-04-10T11:33:43.984Z,17.87
2023-04-10T11:34:45.782Z,18.11
2023-04-10T11:35:47.712Z,18.05
2023-04-10T11:36:49.256Z,17.95
2023-04-10T11:37:51.614Z,18.25
2023-04-10T11:38:56.220Z,17.85
2023-04-10T11:40:05.465Z,17.94
2023-04-10T11:41:07.122Z,17.99
2023-04-10T11:42:11.565Z,18.20
2023-04-10T11:43:15.855Z,18.33
2023-04-10T11:44:39.049Z,18.11
2023-04-10T11:45:40.573Z,17.95
2023-04-10T11:46:48.270Z,17.46
2023-04-10T11:47:53.728Z,17.52
2023-04-10T11:48:58.405Z,17.57
2023-04-10T11:49:59.886Z,17.33
2023-04-10T11:51:09.556Z,17.52
2023-04-10T11:52:11.016Z,17.54
2023-04-10T11:53:20.017Z,17.72
2023-04-10T11:54:23.628Z,17.99
2023-04-10T11:55:39.111Z,17.46
2023-04-10T11:56:43.081Z,17.80
2023-04-10T11:57:45.860Z,17.20
2023-04-10T11:58:53.987Z,17.49
2023-04-10T11:59:55.677Z,17.99
2023-04-10T12:01:04.697Z,18.20
2023-04-10T12:02:11.690Z,17.87
2023-04-10T12:03:13.439Z,17.87
2023-04-10T12:04:17.468Z,17.76
2023-04-10T12:05:19.407Z,17.52
2023-04-10T12:06:21.109Z,17.61
2023-04-10T12:07:24.132Z,17.49
2023-04-10T12:08:37.261Z,17.53
2023-04-10T12:09:38.738Z,17.77
2023-04-10T12:10:47.140Z,17.97
2023-04-10T12:12:03.341Z,18.06
2023-04-10T12:13:06.223Z,18.06
2023-04-10T12:14:08.151Z,17.92
2023-04-10T12:15:26.531Z,17.68
2023-04-10T12:16:28.183Z,17.79
2023-04-10T12:17:30.011Z,17.47
2023-04-10T12:18:31.846Z,17.44
2023-04-10T12:19:34.456Z,17.77
2023-04-10T12:20:35.942Z,18.18
2023-04-10T12:21:38.651Z,18.12
2023-04-10T12:22:40.446Z,18.16
2023-04-10T12:23:42.420Z,17.82
2023-04-10T12:24:46.622Z,17.93
2023-04-10T12:25:48.154Z,17.80
2023-04-10T12:26:49.812Z,18.13
2023-04-10T12:27:51.672Z,18.62
2023-04-10T12:28:59.633Z,18.72
2023-04-10T12:30:08.171Z,18.85
2023-04-10T12:31:10.039Z,19.20
2023-04-10T12:32:11.652Z,19.07
2023-04-10T12:33:13.405Z,18.93
2023-04-10T12:34:18.988Z,19.13
2023-04-10T12:35:20.577Z,19.17
2023-04-10T12:36:24.019Z,19.38
2023-04-10T12:37:46.234Z,19.17
2023-04-10T12:38:47.785Z,19.15
2023-04-10T12:39:49.763Z,19.09
2023-04-10T12:41:01.226Z,19.24
2023-04-10T12:42:16.646Z,19.02
2023-04-10T12:43:39.436Z,19.23
2023-04-10T12:44:57.477Z,19.16
2023-04-10T12:45:58.960Z,18.76
2023-04-10T12:47:01.774Z,18.50
2023-04-10T12:48:03.341Z,18.52
2023-04-10T12:49:12.971Z,18.56
2023-04-10T12:50:16.277Z,18.74
2023-04-10T12:51:17.710Z,18.75
2023-04-10T12:52:23.130Z,19.08
2023-04-10T12:53:25.546Z,18.55
2023-04-10T12:54:37.104Z,18.26
2023-04-10T12:55:38.664Z,18.35
2023-04-10T12:56:44.560Z,18.44
2023-04-10T12:57:47.784Z,18.70
2023-04-10T12:58:49.236Z,18.38
2023-04-10T12:59:51.744Z,18.60
2023-04-10T13:00:53.646Z,18.32
2023-04-10T13:01:55.467Z,18.39
2023-04-10T13:02:57.165Z,18.11
2023-04-10T13:03:58.839Z,17.45
2023-04-10T13:05:00.501Z,17.72
2023-04-10T13:06:03.184Z,17.76
2023-04-10T13:07:04.670Z,18.03
2023-04-10T13:08:06.175Z,18.33
2023-04-10T13:09:07.560Z,18.04
2023-04-10T13:10:09.378Z,18.08
2023-04-10T13:11:10.967Z,18.44
2023-04-10T13:12:13.302Z,18.62
2023-04-10T13:13:15.454Z,18.64
2023-04-10T13:14:16.945Z,18.45
2023-04-10T13:15:18.438Z,18.73
2023-04-10T13:16:19.916Z,18.63
2023-04-10T13:17:22.174Z,18.81
2023-04-10T13:18:23.593Z,18.35
2023-04-10T13:19:25.130Z,18.42
2023-04-10T13:20:26.636Z,18.48
2023-04-10T13:21:29.425Z,18.55
2023-04-10T13:22:30.878Z,18.63
2023-04-10T13:23:32.277Z,18.68
2023-04-10T13:24:33.699Z,18.68
2023-04-10T13:25:39.704Z,18.59
2023-04-10T13:26:41.289Z,18.32
2023-04-10T13:27:42.753Z,18.41
2023-04-10T13:28:44.255Z,18.69
2023-04-10T13:29:46.061Z,18.96
2023-04-10T13:30:47.400Z,19.14
2023-04-10T13:31:50.194Z,18.91
2023-04-10T13:32:51.735Z,18.60
2023-04-10T13:33:53.149Z,18.67
2023-04-10T13:34:54.819Z,18.36
2023-04-10T13:35:56.323Z,18.01
2023-04-10T13:36:57.956Z,17.84
2023-04-10T13:38:00.528Z,17.74
2023-04-10T13:39:01.961Z,17.69
2023-04-10T13:40:05.068Z,17.82
2023-04-10T13:41:06.735Z,17.79
2023-04-10T13:42:08.167Z,17.84
2023-04-10T13:43:09.552Z,18.04
2023-04-10T13:44:10.946Z,18.07
2023-04-10T13:45:12.378Z,18.04
2023-04-10T13:46:13.869Z,18.25
2023-04-10T13:47:15.530Z,18.23
2023-04-10T13:48:22.300Z,18.28
2023-04-10T13:49:31.396Z,18.36
2023-04-10T13:50:36.091Z,18.42
2023-04-10T13:51:37.492Z,18.74
2023-04-10T13:52:38.957Z,18.88
2023-04-10T13:53:40.389Z,18.61
2023-04-10T13:54:41.809Z,18.37
2023-04-10T13:55:44.231Z,18.28
2023-04-10T13:57:47.707Z,17.56
2023-04-10T13:58:49.193Z,17.23